Arrington Corner, Kentucky
Current Conditions -  °F | °C
As of 4:56 AM on Saturday 01 Nov 2014 (Local Time) from KOWB Reporting Station
Overcast Overcast  
Wind Chill: 28°   Ceiling: 5000
Heat Index: 37°   Visibility: 10mi
Dew Point: 27°   Wind: 14mph
Humidity: 68%   Direction: 350°N
Pressure: 30.26"   Gusts: 20mph
Location:  37.8331°N, 86.7635°W
Report Text: KOWB 010956Z AUTO 35012G17KT 10SM OVC050 03/M03 A3026 RMK AO2 TSNO T00271027 SLP248
Loading
Personal Weather Stations






























Interactive Weather Map New forecast layout! Learn more

10-Day Weather Forecast

Advertisements
Track Severe Weather on mobile